Time;durP1;ratioP1;P1;durP2;ratioP2;P2;SDS_P1;SDS_P2;PMS_P1;PMS_P2;Temp;Humidity;BMP_temperature;BMP_pressure;BME280_temperature;BME280_humidity;BME280_pressure;Samples;Min_cycle;Max_cycle;Signal;HPM_P1;HPM_P2
2021/11/09 00:00:05;;;;;;;;;;;;;;;22.27;32.30;98271.91;4986786;28;1899;-76
2021/11/09 00:02:35;;;;;;;;;;;;;;;22.26;32.06;98267.47;4966141;29;890;-76
2021/11/09 00:05:03;;;;;;;;;;;;;;;22.41;31.77;98267.13;4944406;29;1184;-76
2021/11/09 00:07:40;;;;;;;;;;;;;;;22.41;31.79;98278.47;4946509;29;982;-76
2021/11/09 00:10:07;;;;;;;;;;;;;;;22.35;31.98;98273.31;4930325;29;995;-76
2021/11/09 00:12:37;;;;;;;;;;;;;;;22.44;31.52;98272.72;4946971;29;1142;-76
2021/11/09 00:15:03;;;;;;;;;;;;;;;22.20;32.08;98272.09;4944726;29;1007;-76
2021/11/09 00:17:28;;;;;;;;;;;;;;;22.42;31.75;98282.88;4965876;28;1211;-76
2021/11/09 00:19:54;;;;;;;;;;;;;;;22.31;31.73;98283.16;4950961;28;1985;-78
2021/11/09 00:22:20;;;;;;;;;;;;;;;22.35;31.39;98283.88;4985932;28;910;-76
2021/11/09 00:24:45;;;;;;;;;;;;;;;22.24;31.54;98278.47;4983845;28;1143;-76
2021/11/09 00:27:10;;;;;;;;;;;;;;;22.24;31.50;98280.50;4985560;28;961;-76
2021/11/09 00:29:36;;;;;;;;;;;;;;;22.15;31.25;98286.78;4966830;28;967;-76
2021/11/09 00:32:02;;;;;;;;;;;;;;;22.25;31.44;98285.72;4985144;28;1261;-76
2021/11/09 00:34:28;;;;;;;;;;;;;;;22.42;31.19;98288.56;5000650;28;1035;-76
2021/11/09 00:36:53;;;;;;;;;;;;;;;22.76;32.46;98280.38;5037253;28;1001;-76
2021/11/09 00:39:18;;;;;;;;;;;;;;;22.81;32.74;98288.34;5043555;28;1096;-76
2021/11/09 00:41:44;;;;;;;;;;;;;;;22.91;33.18;98285.69;5045846;28;1909;-76
2021/11/09 00:44:09;;;;;;;;;;;;;;;22.50;32.91;98272.97;5043427;28;848;-76
2021/11/09 00:46:36;;;;;;;;;;;;;;;22.62;32.51;98280.72;5045752;28;949;-76
2021/11/09 00:49:02;;;;;;;;;;;;;;;22.42;32.46;98277.22;5043806;28;984;-76
2021/11/09 00:51:27;;;;;;;;;;;;;;;22.23;32.45;98284.59;5045631;28;936;-76
2021/11/09 00:53:53;;;;;;;;;;;;;;;22.38;32.31;98282.16;5043156;28;919;-77
2021/11/09 00:56:19;;;;;;;;;;;;;;;22.48;32.01;98281.09;5045680;28;976;-77
2021/11/09 00:58:44;;;;;;;;;;;;;;;22.45;31.82;98287.69;5042470;28;920;-76
2021/11/09 01:01:09;;;;;;;;;;;;;;;22.48;31.74;98286.78;5045470;28;1925;-76
2021/11/09 01:03:35;;;;;;;;;;;;;;;22.38;32.01;98285.00;5041772;28;965;-76
2021/11/09 01:06:00;;;;;;;;;;;;;;;22.40;31.77;98285.38;5045626;28;1171;-76
2021/11/09 01:08:26;;;;;;;;;;;;;;;22.32;31.63;98288.38;5041971;28;923;-76
2021/11/09 01:10:51;;;;;;;;;;;;;;;22.51;31.39;98285.91;5045911;28;964;-76
2021/11/09 01:13:17;;;;;;;;;;;;;;;22.42;31.39;98283.69;5040550;28;1024;-77
2021/11/09 01:15:49;;;;;;;;;;;;;;;22.23;31.71;98282.53;5045752;28;924;-76
2021/11/09 01:18:15;;;;;;;;;;;;;;;22.33;31.09;98275.03;5042919;28;920;-76
2021/11/09 01:20:41;;;;;;;;;;;;;;;22.18;32.12;98291.59;5045420;28;1980;-76
2021/11/09 01:23:06;;;;;;;;;;;;;;;22.75;32.36;98284.44;5043043;28;961;-76
2021/11/09 01:25:32;;;;;;;;;;;;;;;22.88;32.71;98281.69;5025554;28;1158;-76
2021/11/09 01:27:58;;;;;;;;;;;;;;;22.84;33.14;98281.75;5043268;28;943;-76
2021/11/09 01:30:23;;;;;;;;;;;;;;;22.55;32.85;98280.94;5043847;28;888;-76
2021/11/09 01:32:49;;;;;;;;;;;;;;;22.46;32.38;98266.59;5042942;28;985;-76
2021/11/09 01:35:14;;;;;;;;;;;;;;;22.41;32.47;98269.94;5043284;28;920;-75
2021/11/09 01:37:40;;;;;;;;;;;;;;;22.39;32.16;98273.25;5044293;28;924;-76
2021/11/09 01:40:06;;;;;;;;;;;;;;;22.48;32.10;98276.22;5042857;28;1946;-77
2021/11/09 01:42:32;;;;;;;;;;;;;;;22.42;31.80;98274.38;5045244;28;1201;-76
2021/11/09 01:44:58;;;;;;;;;;;;;;;22.64;31.68;98283.94;5042337;28;856;-76
2021/11/09 01:47:24;;;;;;;;;;;;;;;22.36;32.06;98274.91;5044452;28;980;-76
2021/11/09 01:49:49;;;;;;;;;;;;;;;22.61;31.51;98279.16;5042783;28;916;-76
2021/11/09 01:52:14;;;;;;;;;;;;;;;22.33;31.67;98269.34;5044266;28;1005;-76
2021/11/09 01:54:40;;;;;;;;;;;;;;;22.34;31.81;98274.56;5040329;28;1045;-76
2021/11/09 01:57:05;;;;;;;;;;;;;;;22.54;31.05;98276.50;5044988;28;963;-76
2021/11/09 01:59:32;;;;;;;;;;;;;;;22.52;31.35;98287.47;5042384;28;905;-76
2021/11/09 02:01:57;;;;;;;;;;;;;;;22.29;31.76;98280.78;5045094;28;1882;-76
2021/11/09 02:04:23;;;;;;;;;;;;;;;22.42;31.17;98285.72;5042274;28;907;-76
2021/11/09 02:06:48;;;;;;;;;;;;;;;22.14;31.74;98288.03;5044155;28;1096;-76
2021/11/09 02:09:14;;;;;;;;;;;;;;;22.19;31.44;98292.38;5043242;28;1027;-76
2021/11/09 02:11:40;;;;;;;;;;;;;;;22.33;31.11;98298.50;5046900;28;973;-76
2021/11/09 02:14:06;;;;;;;;;;;;;;;22.16;31.14;98294.03;5046289;28;856;-76
2021/11/09 02:16:31;;;;;;;;;;;;;;;22.53;30.73;98300.41;5047313;28;890;-76
2021/11/09 02:18:56;;;;;;;;;;;;;;;22.04;31.33;98291.88;5045331;28;960;-76
2021/11/09 02:21:22;;;;;;;;;;;;;;;22.41;31.03;98298.31;5047903;28;1957;-76
2021/11/09 02:23:47;;;;;;;;;;;;;;;22.61;32.26;98305.47;5046488;28;900;-76
2021/11/09 02:26:14;;;;;;;;;;;;;;;22.86;32.33;98313.31;5048291;28;871;-76
2021/11/09 02:28:40;;;;;;;;;;;;;;;22.90;32.94;98306.78;5045643;28;886;-76
2021/11/09 02:31:06;;;;;;;;;;;;;;;22.92;32.84;98309.97;5048904;28;1162;-76
2021/11/09 02:33:31;;;;;;;;;;;;;;;22.43;32.91;98319.28;5043845;28;961;-76
2021/11/09 02:35:57;;;;;;;;;;;;;;;22.47;32.37;98322.03;5049026;28;1232;-76
2021/11/09 02:38:22;;;;;;;;;;;;;;;22.42;32.32;98314.88;5044990;28;1084;-76
2021/11/09 02:40:48;;;;;;;;;;;;;;;22.35;32.27;98323.56;5047408;28;1950;-76
2021/11/09 02:43:14;;;;;;;;;;;;;;;22.63;31.62;98328.50;5045353;28;947;-76
2021/11/09 02:46:07;;;;;;;;;;;;;;;22.43;31.96;98324.97;5047310;28;974;-76
2021/11/09 02:48:30;;;;;;;;;;;;;;;22.08;32.54;98343.63;5044178;28;943;-76
2021/11/09 02:51:02;;;;;;;;;;;;;;;22.28;32.08;98337.91;5048622;28;957;-76
2021/11/09 02:56:12;;;;;;;;;;;;;;;22.28;32.12;98332.25;5048944;28;906;-76
2021/11/09 02:58:55;;;;;;;;;;;;;;;22.32;31.77;98336.56;5028515;28;1140;-76
2021/11/09 03:09:17;;;;;;;;;;;;;;;21.98;31.84;98344.66;5044261;28;1002;-76
2021/11/09 03:11:50;;;;;;;;;;;;;;;22.15;31.81;98337.00;5047249;28;887;-76
2021/11/09 03:14:17;;;;;;;;;;;;;;;22.32;31.29;98328.06;5045431;28;930;-76
2021/11/09 03:16:44;;;;;;;;;;;;;;;22.20;31.38;98328.78;5025337;28;1011;-77
2021/11/09 03:46:37;;;;;;;;;;;;;;;22.53;31.86;98351.47;5025780;28;1168;-76
2021/11/09 03:49:04;;;;;;;;;;;;;;;22.65;31.44;98358.47;5044529;28;818;-77
2021/11/09 03:51:30;;;;;;;;;;;;;;;22.56;31.46;98367.59;5046316;28;1136;-76
2021/11/09 03:54:01;;;;;;;;;;;;;;;22.56;31.67;98359.09;5044366;28;949;-76
2021/11/09 03:56:34;;;;;;;;;;;;;;;22.49;31.87;98348.72;5045872;28;958;-76
2021/11/09 03:59:04;;;;;;;;;;;;;;;22.47;31.69;98356.06;5043632;28;938;-76
2021/11/09 04:01:37;;;;;;;;;;;;;;;22.50;31.56;98358.03;5043585;28;1975;-76
2021/11/09 04:04:31;;;;;;;;;;;;;;;22.16;31.80;98355.59;5044633;28;931;-76
2021/11/09 04:07:08;;;;;;;;;;;;;;;22.39;31.59;98357.50;5046938;28;896;-76
2021/11/09 04:12:30;;;;;;;;;;;;;;;22.31;31.64;98369.00;5045818;28;997;-76
2021/11/09 04:15:20;;;;;;;;;;;;;;;22.35;31.75;98369.72;5043048;28;1028;-76
2021/11/09 04:28:57;;;;;;;;;;;;;;;22.44;30.92;98371.16;5041173;28;969;-76
2021/11/09 04:39:40;;;;;;;;;;;;;;;22.35;30.71;98392.41;5011483;28;1213;-77
2021/11/09 05:08:44;;;;;;;;;;;;;;;22.29;32.38;98445.19;4973509;28;976;-76
2021/11/09 05:11:10;;;;;;;;;;;;;;;22.35;32.19;98446.25;4949522;29;892;-77
2021/11/09 05:13:35;;;;;;;;;;;;;;;22.14;32.48;98446.75;4929293;29;975;-77
2021/11/09 05:16:01;;;;;;;;;;;;;;;22.25;32.04;98455.81;4950024;29;1011;-76
2021/11/09 05:18:26;;;;;;;;;;;;;;;22.30;31.91;98454.50;4945706;29;1052;-77
2021/11/09 05:20:52;;;;;;;;;;;;;;;22.20;31.76;98452.69;4949221;29;1915;-76
2021/11/09 05:23:17;;;;;;;;;;;;;;;22.30;31.60;98458.13;4975197;28;1013;-77
2021/11/09 05:25:43;;;;;;;;;;;;;;;22.35;31.28;98453.97;5022187;28;954;-77
2021/11/09 05:28:09;;;;;;;;;;;;;;;22.25;31.35;98461.47;5000051;28;1156;-77
2021/11/09 05:30:36;;;;;;;;;;;;;;;22.43;30.88;98454.59;5002365;28;952;-76
2021/11/09 05:33:02;;;;;;;;;;;;;;;22.47;30.75;98467.47;4942418;29;1125;-77
2021/11/09 05:35:27;;;;;;;;;;;;;;;22.17;31.19;98470.56;4928476;29;910;-77
2021/11/09 05:37:54;;;;;;;;;;;;;;;22.38;30.76;98477.78;4943189;29;1082;-76
2021/11/09 05:40:26;;;;;;;;;;;;;;;22.34;30.76;98481.53;4928071;29;1985;-77
2021/11/09 05:42:52;;;;;;;;;;;;;;;22.43;30.48;98477.28;4930126;29;909;-77
2021/11/09 05:45:17;;;;;;;;;;;;;;;22.36;30.47;98483.91;4950112;29;980;-77
2021/11/09 05:47:43;;;;;;;;;;;;;;;22.67;31.53;98487.25;4893331;29;939;-77
2021/11/09 05:50:09;;;;;;;;;;;;;;;22.80;32.10;98491.00;4892737;29;918;-77
2021/11/09 05:52:34;;;;;;;;;;;;;;;22.83;32.53;98501.47;4894423;29;908;-77
2021/11/09 05:55:00;;;;;;;;;;;;;;;22.80;32.85;98496.69;4892186;29;1035;-77
2021/11/09 05:57:25;;;;;;;;;;;;;;;22.40;32.51;98506.53;4893669;29;891;-77
2021/11/09 05:59:50;;;;;;;;;;;;;;;22.61;31.39;98506.03;4891244;29;1932;-77
2021/11/09 06:02:16;;;;;;;;;;;;;;;22.43;31.56;98488.63;4896095;29;1688;-79
2021/11/09 06:04:42;;;;;;;;;;;;;;;22.22;31.53;98481.38;4921967;29;1218;-78
2021/11/09 06:07:07;;;;;;;;;;;;;;;22.52;31.11;98486.00;4932535;29;991;-77
2021/11/09 06:09:33;;;;;;;;;;;;;;;22.28;31.55;98500.28;4934995;29;1596;-77
2021/11/09 06:11:58;;;;;;;;;;;;;;;22.42;31.58;98499.16;4970449;29;904;-77
2021/11/09 06:14:24;;;;;;;;;;;;;;;22.36;31.53;98501.72;4968539;28;984;-77
2021/11/09 06:16:49;;;;;;;;;;;;;;;22.35;31.57;98494.47;4969935;28;1044;-77
2021/11/09 06:19:15;;;;;;;;;;;;;;;22.32;31.64;98486.81;5012832;28;1050;-77
2021/11/09 06:21:40;;;;;;;;;;;;;;;22.21;31.80;98477.75;5030781;28;1950;-77
2021/11/09 06:24:05;;;;;;;;;;;;;;;22.55;31.06;98491.59;5027924;28;917;-77
2021/11/09 06:26:31;;;;;;;;;;;;;;;22.03;31.75;98506.44;4989519;28;968;-77
2021/11/09 06:28:59;;;;;;;;;;;;;;;22.47;31.29;98507.16;4987388;28;948;-78
2021/11/09 06:31:27;;;;;;;;;;;;;;;22.22;31.44;98504.84;4989449;28;926;-78
2021/11/09 06:33:53;;;;;;;;;;;;;;;22.47;31.04;98503.53;4986791;28;1032;-78
2021/11/09 06:36:18;;;;;;;;;;;;;;;22.45;30.87;98508.84;4989680;28;936;-78
2021/11/09 06:38:45;;;;;;;;;;;;;;;22.37;31.00;98511.03;4986918;28;887;-77
2021/11/09 06:41:10;;;;;;;;;;;;;;;22.50;30.71;98514.78;4980335;28;1875;-79
2021/11/09 06:43:35;;;;;;;;;;;;;;;22.23;31.16;98519.84;4996590;28;1048;-81
2021/11/09 06:46:01;;;;;;;;;;;;;;;22.46;30.56;98516.91;5000050;28;725;-81
2021/11/09 06:48:26;;;;;;;;;;;;;;;22.34;30.67;98524.06;4996427;28;890;-80
2021/11/09 06:50:52;;;;;;;;;;;;;;;22.21;31.13;98517.44;4982825;28;923;-80
2021/11/09 06:53:17;;;;;;;;;;;;;;;22.77;31.65;98528.78;4996308;28;1026;-81
2021/11/09 06:55:43;;;;;;;;;;;;;;;22.94;32.03;98529.63;4962965;28;966;-80
2021/11/09 06:58:08;;;;;;;;;;;;;;;22.98;32.37;98524.66;5025450;28;1091;-81
2021/11/09 07:00:34;;;;;;;;;;;;;;;22.73;32.03;98513.84;5035924;28;1965;-80
2021/11/09 07:02:59;;;;;;;;;;;;;;;22.58;32.03;98512.59;5013840;28;987;-81
2021/11/09 07:05:25;;;;;;;;;;;;;;;22.71;31.47;98519.19;5014145;28;1150;-80
2021/11/09 07:07:51;;;;;;;;;;;;;;;22.49;31.42;98526.59;5013668;28;1037;-81
2021/11/09 07:10:16;;;;;;;;;;;;;;;22.38;31.46;98531.66;5014108;28;951;-81
2021/11/09 07:12:43;;;;;;;;;;;;;;;22.39;31.43;98530.44;5014338;28;1022;-81
2021/11/09 07:15:09;;;;;;;;;;;;;;;22.53;31.32;98528.06;5013675;28;930;-80
2021/11/09 07:17:38;;;;;;;;;;;;;;;22.30;31.49;98520.50;5014253;28;990;-81
2021/11/09 07:20:04;;;;;;;;;;;;;;;22.54;31.18;98526.06;5013327;28;1879;-81
2021/11/09 07:22:29;;;;;;;;;;;;;;;22.36;31.26;98515.09;5015027;28;1046;-81
2021/11/09 07:24:56;;;;;;;;;;;;;;;22.25;31.59;98495.50;5013613;28;871;-81
2021/11/09 07:27:22;;;;;;;;;;;;;;;22.40;31.40;98512.19;5014593;28;1037;-81
2021/11/09 07:29:49;;;;;;;;;;;;;;;22.32;31.16;98505.88;5013158;28;1013;-81
2021/11/09 07:32:16;;;;;;;;;;;;;;;22.02;31.82;98521.03;5014759;28;1011;-81
2021/11/09 07:34:41;;;;;;;;;;;;;;;22.28;31.50;98520.13;5016576;28;911;-80
2021/11/09 07:37:07;;;;;;;;;;;;;;;22.21;31.38;98527.97;5036000;28;846;-81
2021/11/09 07:39:32;;;;;;;;;;;;;;;22.30;31.00;98531.03;5035007;28;857;-81
2021/11/09 07:41:58;;;;;;;;;;;;;;;22.40;31.59;98526.38;5035531;28;1918;-81
2021/11/09 07:44:23;;;;;;;;;;;;;;;22.70;32.20;98525.31;5035248;28;1065;-81
2021/11/09 07:46:49;;;;;;;;;;;;;;;22.80;32.48;98529.94;5036750;28;1117;-79
2021/11/09 07:49:14;;;;;;;;;;;;;;;22.92;32.65;98536.97;5035556;28;934;-81
2021/11/09 07:51:40;;;;;;;;;;;;;;;22.62;32.15;98536.00;5036372;28;1346;-81
2021/11/09 07:54:06;;;;;;;;;;;;;;;22.60;31.71;98532.81;5034821;28;823;-81
2021/11/09 07:56:34;;;;;;;;;;;;;;;22.34;31.89;98538.22;5036169;28;790;-81
2021/11/09 08:01:46;;;;;;;;;;;;;;;22.42;31.38;98527.53;5035749;28;1886;-81
2021/11/09 08:04:15;;;;;;;;;;;;;;;22.34;31.55;98526.88;5034643;28;937;-81
2021/11/09 08:06:46;;;;;;;;;;;;;;;22.40;31.47;98535.69;5034867;28;1141;-80
2021/11/09 08:11:49;;;;;;;;;;;;;;;22.31;31.39;98530.59;5034946;28;1026;-81
2021/11/09 08:14:14;;;;;;;;;;;;;;;22.40;31.27;98540.56;5032776;28;1014;-81
2021/11/09 08:16:40;;;;;;;;;;;;;;;22.44;31.19;98532.78;5033834;28;846;-82
2021/11/09 08:19:05;;;;;;;;;;;;;;;22.04;31.88;98546.91;5032971;28;996;-81
2021/11/09 08:21:31;;;;;;;;;;;;;;;22.24;31.37;98542.09;5033258;28;1883;-82
2021/11/09 08:23:57;;;;;;;;;;;;;;;22.43;31.05;98545.31;4996255;28;952;-82
2021/11/09 08:26:23;;;;;;;;;;;;;;;22.33;31.11;98553.66;5013690;28;962;-80
2021/11/09 08:28:49;;;;;;;;;;;;;;;22.63;31.04;98554.59;5012467;28;1008;-81
2021/11/09 08:31:17;;;;;;;;;;;;;;;22.80;32.49;98564.78;5013711;28;990;-81
2021/11/09 08:33:43;;;;;;;;;;;;;;;22.86;32.48;98557.34;5011889;28;950;-81
2021/11/09 08:36:11;;;;;;;;;;;;;;;22.91;32.59;98558.09;4974771;29;969;-81
2021/11/09 08:38:37;;;;;;;;;;;;;;;22.47;32.40;98565.91;4972114;29;945;-81
2021/11/09 08:41:02;;;;;;;;;;;;;;;22.46;31.98;98552.97;4975164;29;1962;-81
2021/11/09 08:43:31;;;;;;;;;;;;;;;22.44;31.45;98563.97;4956100;28;909;-81
2021/11/09 08:46:07;;;;;;;;;;;;;;;22.28;31.48;98568.34;4956025;29;901;-79
2021/11/09 08:48:38;;;;;;;;;;;;;;;22.40;31.23;98581.03;4953248;29;870;-81
2021/11/09 08:51:08;;;;;;;;;;;;;;;22.41;31.46;98579.00;4956300;29;996;-81
2021/11/09 08:53:38;;;;;;;;;;;;;;;22.31;31.41;98584.44;4916035;29;1018;-81
2021/11/09 09:04:12;;;;;;;;;;;;;;;22.26;31.80;98593.47;4935173;29;915;-81
2021/11/09 09:06:38;;;;;;;;;;;;;;;22.31;31.62;98592.97;4935542;29;1263;-81
2021/11/09 09:09:03;;;;;;;;;;;;;;;22.29;31.65;98608.81;4934677;29;894;-81
2021/11/09 09:11:32;;;;;;;;;;;;;;;22.33;31.26;98607.50;4936153;29;924;-82
2021/11/09 09:13:58;;;;;;;;;;;;;;;22.21;31.40;98608.13;4935194;29;994;-82
2021/11/09 09:16:24;;;;;;;;;;;;;;;22.36;31.44;98615.13;4922574;29;990;-80
2021/11/09 09:18:49;;;;;;;;;;;;;;;22.20;31.70;98617.88;4933808;29;936;-80
2021/11/09 09:21:22;;;;;;;;;;;;;;;22.11;31.39;98614.81;4936494;29;1918;-82
2021/11/09 09:24:01;;;;;;;;;;;;;;;22.28;31.22;98619.34;4953211;29;940;-81
2021/11/09 09:26:50;;;;;;;;;;;;;;;22.43;30.61;98607.72;4954803;29;905;-81
2021/11/09 09:29:32;;;;;;;;;;;;;;;22.26;30.90;98599.13;4953019;29;1000;-82
2021/11/09 09:56:20;;;;;;;;;;;;;;;22.51;31.21;98595.00;4973896;29;954;-81
2021/11/09 09:58:47;;;;;;;;;;;;;;;22.35;31.64;98596.53;4972059;29;1222;-81
2021/11/09 10:01:12;;;;;;;;;;;;;;;22.34;31.55;98606.28;4972772;29;1957;-81
2021/11/09 10:03:39;;;;;;;;;;;;;;;22.21;31.81;98618.69;4970887;28;960;-81
2021/11/09 10:06:06;;;;;;;;;;;;;;;22.20;31.82;98617.88;4959038;29;1325;-81
2021/11/09 10:08:38;;;;;;;;;;;;;;;22.49;31.30;98606.00;4952341;29;939;-81
2021/11/09 10:11:04;;;;;;;;;;;;;;;22.26;31.59;98593.47;4974290;29;969;-81
2021/11/09 10:13:29;;;;;;;;;;;;;;;22.34;31.52;98600.59;4981439;28;902;-81
2021/11/09 10:15:56;;;;;;;;;;;;;;;22.33;31.66;98598.22;4993020;28;946;-78
2021/11/09 10:18:22;;;;;;;;;;;;;;;22.36;31.40;98609.47;4991204;28;986;-81
2021/11/09 10:20:49;;;;;;;;;;;;;;;22.47;31.15;98611.28;4953802;29;1989;-80
2021/11/09 10:23:15;;;;;;;;;;;;;;;22.36;31.39;98609.47;4952645;29;1030;-81
2021/11/09 10:25:41;;;;;;;;;;;;;;;22.00;32.07;98609.31;4954283;29;936;-81
2021/11/09 10:28:07;;;;;;;;;;;;;;;22.44;30.98;98609.34;4952995;29;966;-81
2021/11/09 10:30:36;;;;;;;;;;;;;;;22.47;31.06;98625.47;4916711;29;989;-80
2021/11/09 10:33:02;;;;;;;;;;;;;;;22.34;31.05;98628.94;4917451;29;990;-81
2021/11/09 10:35:28;;;;;;;;;;;;;;;22.28;31.27;98633.53;4918448;29;994;-81
2021/11/09 10:37:54;;;;;;;;;;;;;;;22.31;30.99;98629.81;4919097;29;1049;-81
2021/11/09 10:40:24;;;;;;;;;;;;;;;22.36;30.86;98614.34;4918973;29;1887;-82
2021/11/09 10:42:50;;;;;;;;;;;;;;;22.13;31.42;98594.56;4902876;29;970;-80
2021/11/09 10:45:17;;;;;;;;;;;;;;;22.74;31.89;98577.91;4899472;29;926;-79
2021/11/09 10:47:44;;;;;;;;;;;;;;;22.92;32.45;98571.03;4900252;29;948;-81
2021/11/09 10:50:22;;;;;;;;;;;;;;;23.02;32.38;98582.16;4898680;29;1055;-81
2021/11/09 10:52:49;;;;;;;;;;;;;;;22.78;32.21;98600.50;4952905;29;954;-81
2021/11/09 10:55:31;;;;;;;;;;;;;;;22.60;32.16;98615.06;4956094;29;898;-81
2021/11/09 11:03:22;;;;;;;;;;;;;;;22.31;31.83;98600.66;4935894;29;924;-81
2021/11/09 11:05:48;;;;;;;;;;;;;;;22.27;31.85;98606.41;4937921;29;1186;-80
2021/11/09 11:08:14;;;;;;;;;;;;;;;22.59;31.26;98611.44;4936108;29;975;-81
2021/11/09 11:10:39;;;;;;;;;;;;;;;22.35;31.65;98630.53;4938138;29;922;-80
2021/11/09 11:13:14;;;;;;;;;;;;;;;22.42;31.92;98628.81;4935727;29;1002;-81
2021/11/09 11:15:58;;;;;;;;;;;;;;;22.33;31.63;98633.03;4927662;29;895;-81
2021/11/09 11:18:43;;;;;;;;;;;;;;;22.42;31.46;98645.81;4897261;29;1061;-81
2021/11/09 11:21:11;;;;;;;;;;;;;;;22.53;31.24;98635.06;4899823;29;1953;-81
2021/11/09 11:23:37;;;;;;;;;;;;;;;22.45;31.52;98633.63;4897879;29;1214;-80
2021/11/09 11:26:04;;;;;;;;;;;;;;;22.50;31.20;98641.63;4900129;29;892;-81
2021/11/09 11:28:30;;;;;;;;;;;;;;;22.62;30.87;98633.22;4922841;29;1095;-81
2021/11/09 11:30:56;;;;;;;;;;;;;;;22.42;31.16;98631.63;4937879;29;999;-80
2021/11/09 11:33:22;;;;;;;;;;;;;;;22.30;31.34;98633.09;4935758;29;1069;-81
2021/11/09 11:35:47;;;;;;;;;;;;;;;22.30;31.50;98622.53;4937786;29;883;-80
2021/11/09 11:38:13;;;;;;;;;;;;;;;22.38;31.08;98628.06;4997544;28;1123;-81
2021/11/09 11:40:39;;;;;;;;;;;;;;;22.16;31.67;98645.50;5031034;28;1886;-81
2021/11/09 11:43:04;;;;;;;;;;;;;;;22.65;32.41;98659.94;5030084;28;868;-80
2021/11/09 11:45:46;;;;;;;;;;;;;;;22.68;33.06;98659.06;5013650;28;970;-80
2021/11/09 11:48:11;;;;;;;;;;;;;;;22.66;33.63;98667.22;4992700;28;1077;-81
2021/11/09 11:50:37;;;;;;;;;;;;;;;22.76;32.79;98669.03;4993912;28;926;-80
2021/11/09 11:53:03;;;;;;;;;;;;;;;22.47;32.64;98671.63;4993138;28;952;-81
2021/11/09 11:55:31;;;;;;;;;;;;;;;22.34;32.56;98668.66;4994056;28;810;-80
2021/11/09 11:57:59;;;;;;;;;;;;;;;22.57;31.92;98652.81;4993005;28;985;-81
2021/11/09 12:00:39;;;;;;;;;;;;;;;22.40;32.27;98659.63;4993639;28;1948;-80
2021/11/09 12:03:23;;;;;;;;;;;;;;;22.51;32.25;98669.53;4973626;29;900;-80
2021/11/09 12:05:49;;;;;;;;;;;;;;;22.40;32.24;98662.47;4975499;29;1269;-79
2021/11/09 12:08:37;;;;;;;;;;;;;;;22.29;32.57;98671.97;4973576;29;927;-81
2021/11/09 12:11:03;;;;;;;;;;;;;;;22.30;32.18;98678.44;4937235;29;1033;-81
2021/11/09 12:13:29;;;;;;;;;;;;;;;22.40;31.97;98673.81;4918006;29;883;-81
2021/11/09 12:15:55;;;;;;;;;;;;;;;22.53;31.55;98669.88;4937030;29;1409;-80
2021/11/09 12:18:41;;;;;;;;;;;;;;;22.41;31.77;98673.38;4933994;29;903;-82
2021/11/09 12:21:30;;;;;;;;;;;;;;;22.35;31.51;98675.91;4936917;29;1884;-81
2021/11/09 12:24:08;;;;;;;;;;;;;;;22.16;31.96;98690.03;4934897;29;1031;-81
2021/11/09 12:26:40;;;;;;;;;;;;;;;22.49;31.26;98696.75;4936075;29;1070;-81
2021/11/09 12:29:44;;;;;;;;;;;;;;;22.27;31.55;98697.13;4934896;29;895;-81
2021/11/09 12:32:29;;;;;;;;;;;;;;;22.12;31.63;98681.59;4879632;29;908;-81
2021/11/09 12:35:07;;;;;;;;;;;;;;;22.33;31.21;98703.91;4910161;29;1047;-81
2021/11/09 12:37:33;;;;;;;;;;;;;;;22.28;31.27;98698.75;4897347;29;1234;-81
2021/11/09 12:40:17;;;;;;;;;;;;;;;22.44;31.43;98719.91;4896031;29;1044;-81
2021/11/09 12:43:01;;;;;;;;;;;;;;;22.68;32.74;98729.19;4897119;29;1050;-81
2021/11/09 12:45:28;;;;;;;;;;;;;;;22.83;33.08;98734.13;4896693;29;1030;-81
2021/11/09 12:47:57;;;;;;;;;;;;;;;22.81;33.09;98735.81;4888062;29;1045;-81
2021/11/09 12:50:22;;;;;;;;;;;;;;;22.72;32.75;98739.22;4897065;29;1007;-81
2021/11/09 12:52:48;;;;;;;;;;;;;;;22.51;32.63;98753.81;4877640;29;1302;-81
2021/11/09 12:55:13;;;;;;;;;;;;;;;22.20;32.80;98765.28;4915506;29;947;-80
2021/11/09 12:57:39;;;;;;;;;;;;;;;22.55;32.13;98774.41;4899922;29;1130;-81
2021/11/09 13:00:09;;;;;;;;;;;;;;;22.28;32.49;98778.13;4914183;29;1903;-81
2021/11/09 13:02:42;;;;;;;;;;;;;;;22.44;32.23;98768.13;4939813;29;1226;-81
2021/11/09 13:05:22;;;;;;;;;;;;;;;22.54;31.89;98772.81;4952436;29;1068;-81
2021/11/09 13:07:48;;;;;;;;;;;;;;;22.42;32.16;98779.09;4949916;29;975;-81
2021/11/09 13:10:24;;;;;;;;;;;;;;;22.31;32.45;98765.91;4933926;29;897;-82
2021/11/09 13:12:52;;;;;;;;;;;;;;;22.53;32.02;98771.97;4933747;29;912;-81
2021/11/09 13:15:18;;;;;;;;;;;;;;;22.50;31.77;98766.41;4915357;29;1019;-81
2021/11/09 13:17:46;;;;;;;;;;;;;;;22.30;32.34;98772.81;4915734;29;1006;-81
2021/11/09 13:23:02;;;;;;;;;;;;;;;22.35;31.81;98788.53;4895699;29;1114;-81
2021/11/09 13:25:37;;;;;;;;;;;;;;;22.16;31.92;98798.56;4889842;29;928;-79
2021/11/09 13:28:04;;;;;;;;;;;;;;;22.45;31.70;98792.41;4933594;29;919;-81
2021/11/09 13:30:29;;;;;;;;;;;;;;;22.22;31.67;98799.66;4918404;29;1174;-82
2021/11/09 13:32:55;;;;;;;;;;;;;;;22.12;31.71;98806.31;4938199;29;1204;-81
2021/11/09 13:35:23;;;;;;;;;;;;;;;22.22;31.47;98813.84;4937782;29;1029;-79
2021/11/09 13:37:50;;;;;;;;;;;;;;;22.46;31.09;98823.16;4952281;29;910;-79
2021/11/09 13:40:16;;;;;;;;;;;;;;;22.33;31.14;98831.50;4945688;29;1914;-78
2021/11/09 13:42:42;;;;;;;;;;;;;;;22.56;32.52;98844.06;4947290;29;1175;-79
2021/11/09 13:45:16;;;;;;;;;;;;;;;22.85;32.68;98833.81;4948065;28;975;-78
2021/11/09 13:47:42;;;;;;;;;;;;;;;22.88;32.67;98843.53;4987378;28;930;-78
2021/11/09 13:50:10;;;;;;;;;;;;;;;22.71;32.92;98828.41;4985922;28;954;-78
2021/11/09 13:52:42;;;;;;;;;;;;;;;22.58;32.65;98828.22;4988018;28;853;-79
2021/11/09 13:55:08;;;;;;;;;;;;;;;22.44;32.26;98833.34;4986981;28;910;-79
2021/11/09 13:57:33;;;;;;;;;;;;;;;22.62;31.83;98853.69;4988090;28;768;-78
2021/11/09 14:00:16;;;;;;;;;;;;;;;22.42;32.05;98869.81;4985722;28;962;-78
2021/11/09 14:02:57;;;;;;;;;;;;;;;22.41;31.98;98871.88;4987386;28;991;-77
2021/11/09 14:08:34;;;;;;;;;;;;;;;22.27;31.88;98838.84;5029163;28;1266;-78
2021/11/09 14:14:15;;;;;;;;;;;;;;;22.61;32.57;98855.72;5006610;28;942;-78
2021/11/09 14:16:40;;;;;;;;;;;;;;;22.59;33.04;98854.56;5009575;28;1148;-78
2021/11/09 14:19:08;;;;;;;;;;;;;;;22.66;33.18;98860.09;5007068;28;953;-78
2021/11/09 14:21:35;;;;;;;;;;;;;;;22.65;32.22;98878.38;5009479;28;1953;-78
2021/11/09 14:24:18;;;;;;;;;;;;;;;22.59;31.92;98891.44;5006893;28;1078;-78
2021/11/09 14:26:44;;;;;;;;;;;;;;;22.53;31.89;98901.66;5009008;28;1047;-78
2021/11/09 14:29:20;;;;;;;;;;;;;;;22.33;32.10;98888.19;5006319;28;1085;-79
2021/11/09 14:31:56;;;;;;;;;;;;;;;22.23;32.17;98889.16;5008851;28;1021;-78
2021/11/09 14:34:22;;;;;;;;;;;;;;;22.49;31.54;98895.25;5006916;28;921;-79
2021/11/09 14:36:49;;;;;;;;;;;;;;;22.50;31.36;98885.50;5009135;28;941;-78
2021/11/09 14:39:15;;;;;;;;;;;;;;;22.33;31.48;98888.19;5006362;28;946;-78
2021/11/09 14:45:06;;;;;;;;;;;;;;;22.21;31.50;98883.09;5018966;28;1253;-78
2021/11/09 14:47:35;;;;;;;;;;;;;;;22.27;31.50;98901.22;5028811;28;964;-79
2021/11/09 14:50:08;;;;;;;;;;;;;;;22.35;31.13;98928.25;4976840;28;1125;-78
2021/11/09 14:52:37;;;;;;;;;;;;;;;22.49;32.07;98923.63;5017461;28;958;-78
2021/11/09 14:55:39;;;;;;;;;;;;;;;22.56;32.79;98929.16;5006518;28;948;-78
2021/11/09 14:58:08;;;;;;;;;;;;;;;22.73;32.45;98939.41;4986932;28;985;-79
2021/11/09 15:00:33;;;;;;;;;;;;;;;22.64;32.24;98959.03;4999335;28;1898;-78
2021/11/09 15:03:00;;;;;;;;;;;;;;;22.46;32.08;98969.84;5006944;28;1005;-79
2021/11/09 15:05:26;;;;;;;;;;;;;;;22.14;32.32;98982.44;4968253;29;1213;-78
2021/11/09 15:10:32;;;;;;;;;;;;;;;22.48;32.02;98984.38;4900329;29;1342;-78
2021/11/09 15:13:09;;;;;;;;;;;;;;;22.38;31.77;99013.69;4884938;29;1178;-77
2021/11/09 15:29:22;;;;;;;;;;;;;;;22.31;31.39;99054.28;4889388;29;1222;-79
2021/11/09 15:31:58;;;;;;;;;;;;;;;22.12;31.60;99064.22;4891670;29;1245;-78
2021/11/09 15:34:46;;;;;;;;;;;;;;;22.25;31.71;99070.16;4861097;29;1226;-79
2021/11/09 15:37:33;;;;;;;;;;;;;;;22.16;31.34;99076.34;4855747;29;1338;-79
2021/11/09 15:39:59;;;;;;;;;;;;;;;22.24;31.49;99094.09;4871818;29;996;-78
2021/11/09 15:42:26;;;;;;;;;;;;;;;22.53;31.99;99100.19;4886443;29;1986;-78
2021/11/09 15:44:52;;;;;;;;;;;;;;;22.87;31.77;99100.94;4910210;29;1018;-78
2021/11/09 15:47:17;;;;;;;;;;;;;;;22.80;32.34;99086.88;4911550;29;1009;-78